createdAt,value
2016-08-22T00:00:25.800Z,99.99
2016-08-22T00:01:25.822Z,99.99
2016-08-22T00:02:25.851Z,99.99
2016-08-22T00:04:25.897Z,99.99
2016-08-22T00:05:25.922Z,99.99
2016-08-22T00:06:25.950Z,99.99
2016-08-22T00:07:25.972Z,99.99
2016-08-22T00:08:26.699Z,99.99
2016-08-22T00:09:26.023Z,99.99
2016-08-22T00:10:26.047Z,99.99
2016-08-22T00:11:26.072Z,99.99
2016-08-22T00:12:26.097Z,99.99
2016-08-22T00:13:26.118Z,99.99
2016-08-22T00:14:41.069Z,99.99
2016-08-22T00:16:26.196Z,99.99
2016-08-22T00:17:26.224Z,99.99
2016-08-22T00:18:26.251Z,99.99
2016-08-22T00:19:26.272Z,99.99
2016-08-22T00:20:26.301Z,99.99
2016-08-22T00:21:26.369Z,99.99
2016-08-22T00:22:26.345Z,99.99
2016-08-22T00:23:26.369Z,99.99
2016-08-22T00:24:26.393Z,99.99
2016-08-22T00:25:26.432Z,99.99
2016-08-22T00:26:26.441Z,99.99
2016-08-22T00:27:26.466Z,99.99
2016-08-22T00:28:26.499Z,99.99
2016-08-22T00:29:26.516Z,99.99
2016-08-22T00:30:41.468Z,99.99
2016-08-22T00:31:26.574Z,99.99
2016-08-22T00:32:26.597Z,99.99
2016-08-22T00:33:26.618Z,99.99
2016-08-22T00:34:26.645Z,99.99
2016-08-22T00:35:26.673Z,99.99
2016-08-22T00:36:26.696Z,99.99
2016-08-22T00:37:26.719Z,99.99
2016-08-22T00:38:27.444Z,99.99
2016-08-22T00:39:26.768Z,99.99
2016-08-22T00:40:26.791Z,99.99
2016-08-22T00:41:26.818Z,99.99
2016-08-22T00:42:26.843Z,99.99
2016-08-22T00:43:26.874Z,99.99
2016-08-22T00:44:26.896Z,99.99
2016-08-22T00:45:41.844Z,99.99
2016-08-22T00:46:26.945Z,99.99
2016-08-22T00:47:26.968Z,99.99
2016-08-22T00:48:26.994Z,99.99
2016-08-22T00:49:27.023Z,99.99
2016-08-22T00:50:27.040Z,99.99
2016-08-22T00:51:27.067Z,99.99
2016-08-22T00:52:27.095Z,99.99
2016-08-22T00:53:27.132Z,99.99
2016-08-22T00:54:27.147Z,99.99
2016-08-22T00:55:27.167Z,99.99
2016-08-22T00:56:27.196Z,99.99
2016-08-22T00:59:27.271Z,99.99
2016-08-22T01:00:27.290Z,99.99
2016-08-22T01:01:27.322Z,99.99
2016-08-22T01:02:27.344Z,99.99
2016-08-22T01:03:27.370Z,99.99
2016-08-22T01:04:27.392Z,99.99
2016-08-22T01:05:27.421Z,99.99
2016-08-22T01:06:27.443Z,99.99
2016-08-22T01:07:27.480Z,99.99
2016-08-22T01:08:27.495Z,99.99
2016-08-22T01:09:27.516Z,99.99
2016-08-22T01:10:27.536Z,99.99
2016-08-22T01:11:27.568Z,99.99
2016-08-22T01:12:27.594Z,99.99
2016-08-22T01:13:27.616Z,99.99
2016-08-22T01:14:27.651Z,99.99
2016-08-22T01:16:27.687Z,99.99
2016-08-22T01:17:42.638Z,99.99
2016-08-22T01:18:27.744Z,99.99
2016-08-22T01:19:27.824Z,99.99
2016-08-22T01:20:27.787Z,99.99
2016-08-22T01:21:27.816Z,99.99
2016-08-22T01:22:27.842Z,99.99
2016-08-22T01:23:27.864Z,99.99
2016-08-22T01:24:27.887Z,99.99
2016-08-22T01:25:27.911Z,99.99
2016-08-22T01:26:27.939Z,99.99
2016-08-22T01:27:28.013Z,99.99
2016-08-22T01:28:28.011Z,99.99
2016-08-22T01:29:28.016Z,99.99
2016-08-22T01:31:28.066Z,99.99
2016-08-22T01:32:28.087Z,99.99
2016-08-22T01:33:43.035Z,99.99
2016-08-22T01:34:28.138Z,99.99
2016-08-22T01:35:28.161Z,99.99
2016-08-22T01:36:28.202Z,99.99
2016-08-22T01:37:28.210Z,99.99
2016-08-22T01:38:28.234Z,99.99
2016-08-22T01:39:28.260Z,99.99
2016-08-22T01:40:28.289Z,99.99
2016-08-22T01:41:28.307Z,99.99
2016-08-22T01:42:28.334Z,99.99
2016-08-22T01:43:28.360Z,99.99
2016-08-22T01:44:28.392Z,99.99
2016-08-22T01:46:28.434Z,99.99
2016-08-22T01:47:28.456Z,99.99
2016-08-22T01:48:28.483Z,99.99
2016-08-22T01:49:43.432Z,99.99
2016-08-22T01:50:28.579Z,99.99
2016-08-22T01:51:28.557Z,99.99
2016-08-22T01:52:28.586Z,99.99
2016-08-22T01:53:28.608Z,99.99
2016-08-22T01:54:28.632Z,99.99
2016-08-22T01:55:28.656Z,99.99
2016-08-22T01:56:28.683Z,99.99
2016-08-22T01:57:28.707Z,99.99
2016-08-22T01:58:28.733Z,99.99
2016-08-22T01:59:28.754Z,99.99
2016-08-22T02:00:28.783Z,99.99
2016-08-22T02:01:28.803Z,99.99
2016-08-22T02:02:28.832Z,99.99
2016-08-22T02:03:28.861Z,99.99
2016-08-22T02:04:28.883Z,99.99
2016-08-22T02:05:43.831Z,99.99
2016-08-22T02:07:28.958Z,99.99
2016-08-22T02:08:28.986Z,99.99
2016-08-22T02:09:29.007Z,99.99
2016-08-22T02:10:29.032Z,99.99
2016-08-22T02:11:29.053Z,99.99
2016-08-22T02:12:29.081Z,99.99
2016-08-22T02:13:29.106Z,99.99
2016-08-22T02:14:29.131Z,99.99
2016-08-22T02:15:29.155Z,99.99
2016-08-22T02:16:29.178Z,99.99
2016-08-22T02:19:29.260Z,99.99
2016-08-22T02:20:44.201Z,99.99
2016-08-22T02:22:29.379Z,99.99
2016-08-22T02:23:29.355Z,99.99
2016-08-22T02:24:29.380Z,99.99
2016-08-22T02:25:29.405Z,99.99
2016-08-22T02:26:29.434Z,99.99
2016-08-22T02:27:29.449Z,99.99
2016-08-22T02:28:29.525Z,99.99
2016-08-22T02:29:29.498Z,99.99
2016-08-22T02:30:29.530Z,99.99
2016-08-22T02:31:29.549Z,99.99
2016-08-22T02:32:29.578Z,99.99
2016-08-22T02:34:29.634Z,99.99
2016-08-22T02:35:29.653Z,99.99
2016-08-22T02:36:29.676Z,99.99
2016-08-22T02:38:29.725Z,99.99
2016-08-22T02:39:29.752Z,99.99
2016-08-22T02:40:29.772Z,99.99
2016-08-22T02:41:29.798Z,99.99
2016-08-22T02:42:29.822Z,99.99
2016-08-22T02:43:29.847Z,99.99
2016-08-22T02:44:29.869Z,99.99
2016-08-22T02:45:29.899Z,99.99
2016-08-22T02:46:29.917Z,99.99
2016-08-22T02:47:29.945Z,99.99
2016-08-22T02:48:29.970Z,99.99
2016-08-22T02:49:29.997Z,99.99
2016-08-22T02:50:30.020Z,99.99
2016-08-22T02:51:30.041Z,99.99
2016-08-22T02:52:44.992Z,99.99
2016-08-22T02:53:30.095Z,99.99
2016-08-22T02:54:30.119Z,99.99
2016-08-22T02:55:30.140Z,99.99
2016-08-22T02:56:30.165Z,99.99
2016-08-22T02:57:30.203Z,99.99
2016-08-22T02:58:30.219Z,99.99
2016-08-22T02:59:30.239Z,99.99
2016-08-22T03:00:30.269Z,99.99
2016-08-22T03:01:30.297Z,99.99
2016-08-22T03:02:30.315Z,99.99
2016-08-22T03:03:30.344Z,99.99
2016-08-22T03:04:30.368Z,99.99
2016-08-22T03:05:30.395Z,99.99
2016-08-22T03:06:30.420Z,99.99
2016-08-22T03:07:30.442Z,99.99
2016-08-22T03:08:45.388Z,99.99
2016-08-22T03:09:30.498Z,99.99
2016-08-22T03:10:30.514Z,99.99
2016-08-22T03:11:30.540Z,99.99
2016-08-22T03:12:30.566Z,99.99
2016-08-22T03:13:30.588Z,99.99
2016-08-22T03:14:30.613Z,99.99
2016-08-22T03:15:30.640Z,99.99
2016-08-22T03:16:30.660Z,99.99
2016-08-22T03:17:30.682Z,99.99
2016-08-22T03:18:30.709Z,99.99
2016-08-22T03:19:30.735Z,99.99
2016-08-22T03:20:30.768Z,99.99
2016-08-22T03:21:30.785Z,99.99
2016-08-22T03:22:30.809Z,99.99
2016-08-22T03:23:30.882Z,99.99
2016-08-22T03:24:45.783Z,99.99
2016-08-22T03:25:30.881Z,99.99
2016-08-22T03:26:30.906Z,99.99
2016-08-22T03:27:31.633Z,99.99
2016-08-22T03:28:30.956Z,99.99
2016-08-22T03:29:30.978Z,99.99
2016-08-22T03:30:31.011Z,99.99
2016-08-22T03:31:31.082Z,99.99
2016-08-22T03:32:31.053Z,99.99
2016-08-22T03:33:31.077Z,99.99
2016-08-22T03:34:31.101Z,99.99
2016-08-22T03:35:31.128Z,99.99
2016-08-22T03:36:31.150Z,99.99
2016-08-22T03:37:31.178Z,99.99
2016-08-22T03:38:31.202Z,99.99
2016-08-22T03:39:31.229Z,99.99
2016-08-22T03:40:46.176Z,99.99
2016-08-22T03:41:31.278Z,99.99
2016-08-22T03:42:31.298Z,99.99
2016-08-22T03:43:31.321Z,99.99
2016-08-22T03:44:31.349Z,99.99
2016-08-22T03:45:31.374Z,99.99
2016-08-22T03:46:31.398Z,99.99
2016-08-22T03:47:31.420Z,99.99
2016-08-22T03:48:31.448Z,99.99
2016-08-22T03:49:31.472Z,99.99
2016-08-22T03:50:31.493Z,99.99
2016-08-22T03:51:31.519Z,99.99
2016-08-22T03:54:31.592Z,99.99
2016-08-22T03:55:46.545Z,99.99
2016-08-22T03:56:31.644Z,99.99
2016-08-22T03:57:31.670Z,99.99
2016-08-22T03:58:31.708Z,99.99
2016-08-22T03:59:31.726Z,99.99
2016-08-22T04:00:31.745Z,99.99
2016-08-22T04:01:31.766Z,99.99
2016-08-22T04:02:31.792Z,99.99
2016-08-22T04:03:31.820Z,99.99
2016-08-22T04:04:31.844Z,99.99
2016-08-22T04:05:31.873Z,99.99
2016-08-22T04:06:31.892Z,99.99
2016-08-22T04:07:31.915Z,99.99
2016-08-22T04:08:31.945Z,99.99
2016-08-22T04:09:31.971Z,99.99
2016-08-22T04:10:31.991Z,99.99
2016-08-22T04:11:32.013Z,99.99
2016-08-22T04:13:32.062Z,99.99
2016-08-22T04:14:32.092Z,99.99
2016-08-22T04:15:32.114Z,99.99
2016-08-22T04:16:32.137Z,99.99
2016-08-22T04:17:32.179Z,99.99
2016-08-22T04:18:32.186Z,99.99
2016-08-22T04:19:32.210Z,99.99
2016-08-22T04:20:32.237Z,99.99
2016-08-22T04:21:32.259Z,99.99
2016-08-22T04:22:32.281Z,99.99
2016-08-22T04:23:32.312Z,99.99
2016-08-22T04:24:32.334Z,99.99
2016-08-22T04:25:32.359Z,99.99
2016-08-22T04:26:32.436Z,99.99
2016-08-22T04:27:47.334Z,99.99
2016-08-22T04:28:32.435Z,99.99
2016-08-22T04:29:32.465Z,99.99
2016-08-22T04:30:32.486Z,99.99
2016-08-22T04:31:32.507Z,99.99
2016-08-22T04:32:32.531Z,99.99
2016-08-22T04:33:32.558Z,99.99
2016-08-22T04:34:32.583Z,99.99
2016-08-22T04:35:32.655Z,99.99
2016-08-22T04:36:32.635Z,99.99
2016-08-22T04:37:32.654Z,99.99
2016-08-22T04:38:32.681Z,99.99
2016-08-22T04:40:32.738Z,99.99
2016-08-22T04:42:32.781Z,99.99
2016-08-22T04:43:47.731Z,99.99
2016-08-22T04:45:32.853Z,99.99
2016-08-22T04:46:32.882Z,99.99
2016-08-22T04:47:32.906Z,99.99
2016-08-22T04:48:32.927Z,99.99
2016-08-22T04:49:32.956Z,99.99
2016-08-22T04:50:32.979Z,99.99
2016-08-22T04:51:33.006Z,99.99
2016-08-22T04:52:33.031Z,99.99
2016-08-22T04:53:33.052Z,99.99
2016-08-22T04:54:33.082Z,99.99
2016-08-22T04:55:33.104Z,99.99
2016-08-22T04:56:33.127Z,99.99
2016-08-22T04:57:33.155Z,99.99
2016-08-22T04:59:48.125Z,99.99
2016-08-22T05:00:33.228Z,99.99
2016-08-22T05:01:33.255Z,99.99
2016-08-22T05:02:33.277Z,99.99
2016-08-22T05:03:33.299Z,99.99
2016-08-22T05:04:33.328Z,99.99
2016-08-22T05:05:33.353Z,99.99
2016-08-22T05:06:33.379Z,99.99
2016-08-22T05:07:33.402Z,99.99
2016-08-22T05:08:33.431Z,99.99
2016-08-22T05:09:33.447Z,99.99
2016-08-22T05:10:33.477Z,99.99
2016-08-22T05:11:33.499Z,99.99
2016-08-22T05:12:33.526Z,99.99
2016-08-22T05:13:33.553Z,99.99
2016-08-22T05:14:33.578Z,99.99
2016-08-22T05:15:48.526Z,99.99
2016-08-22T05:16:33.625Z,99.99
2016-08-22T05:17:33.653Z,99.99
2016-08-22T05:18:33.678Z,99.99
2016-08-22T05:19:33.707Z,99.99
2016-08-22T05:20:33.730Z,99.99
2016-08-22T05:21:33.753Z,99.99
2016-08-22T05:22:33.776Z,99.99
2016-08-22T05:23:33.803Z,99.99
2016-08-22T05:24:33.824Z,99.99
2016-08-22T05:25:33.849Z,99.99
2016-08-22T05:26:33.880Z,99.99
2016-08-22T05:27:33.955Z,99.99
2016-08-22T05:29:33.951Z,99.99
2016-08-22T05:30:48.902Z,99.99
2016-08-22T05:31:34.006Z,99.99
2016-08-22T05:32:34.031Z,99.99
2016-08-22T05:33:34.054Z,99.99
2016-08-22T05:34:34.078Z,99.99
2016-08-22T05:35:34.105Z,99.99
2016-08-22T05:36:34.127Z,99.99
2016-08-22T05:37:34.153Z,99.99
2016-08-22T05:38:34.235Z,99.99
2016-08-22T05:39:34.204Z,99.99
2016-08-22T05:41:34.260Z,99.99
2016-08-22T05:42:34.281Z,99.99
2016-08-22T05:43:34.304Z,99.99
2016-08-22T05:44:34.337Z,99.99
2016-08-22T05:45:34.361Z,99.99
2016-08-22T05:46:34.385Z,99.99
2016-08-22T05:48:34.433Z,99.99
2016-08-22T05:49:34.465Z,99.99
2016-08-22T05:50:34.487Z,99.99
2016-08-22T05:51:34.515Z,99.99
2016-08-22T05:52:34.536Z,99.99
2016-08-22T05:53:34.566Z,99.99
2016-08-22T05:54:34.588Z,99.99
2016-08-22T05:55:34.614Z,99.99
2016-08-22T05:56:34.645Z,99.99
2016-08-22T05:58:34.692Z,99.99
2016-08-22T05:59:34.717Z,99.99
2016-08-22T06:00:34.745Z,99.99
2016-08-22T06:01:34.772Z,99.99
2016-08-22T06:02:49.722Z,99.99
2016-08-22T06:03:34.828Z,99.99
2016-08-22T06:04:34.853Z,99.99
2016-08-22T06:05:34.875Z,99.99
2016-08-22T06:06:34.906Z,99.99
2016-08-22T06:07:34.931Z,99.99
2016-08-22T06:08:34.950Z,99.99
2016-08-22T06:09:34.981Z,99.99
2016-08-22T06:10:35.007Z,99.99
2016-08-22T06:11:35.036Z,99.99
2016-08-22T06:12:35.056Z,99.99
2016-08-22T06:13:35.086Z,99.99
2016-08-22T06:14:35.116Z,99.99
2016-08-22T06:15:35.137Z,99.99
2016-08-22T06:16:35.161Z,99.99
2016-08-22T06:17:35.198Z,99.99
2016-08-22T06:18:50.138Z,99.3
2016-08-22T06:19:35.244Z,99.68
2016-08-22T06:20:35.269Z,99.99
2016-08-22T06:21:35.294Z,99.83
2016-08-22T06:22:35.318Z,99.99
2016-08-22T06:23:35.345Z,99.99
2016-08-22T06:24:35.373Z,97.33
2016-08-22T06:25:35.403Z,96.12
2016-08-22T06:26:35.428Z,92.66
2016-08-22T06:27:35.450Z,90.88
2016-08-22T06:28:35.482Z,87.79
2016-08-22T06:29:35.508Z,84.46
2016-08-22T06:30:35.539Z,80.93
2016-08-22T06:31:35.568Z,78.75
2016-08-22T06:32:35.598Z,80.26
2016-08-22T06:33:35.625Z,80.06
2016-08-22T06:34:50.578Z,80.79
2016-08-22T06:35:35.689Z,81.04
2016-08-22T06:36:35.708Z,81.72
2016-08-22T06:37:35.744Z,81.33
2016-08-22T06:38:35.767Z,82.35
2016-08-22T06:39:35.798Z,83.08
2016-08-22T06:40:35.877Z,84.43
2016-08-22T06:41:35.857Z,83.28
2016-08-22T06:42:35.886Z,84.33
2016-08-22T06:43:35.912Z,84.29
2016-08-22T06:44:35.941Z,84.48
2016-08-22T06:45:35.967Z,84.58
2016-08-22T06:46:35.995Z,85.44
2016-08-22T06:48:36.060Z,85.31
2016-08-22T06:49:36.079Z,85.5
2016-08-22T06:50:51.035Z,85.78
2016-08-22T06:51:36.137Z,86.27
2016-08-22T06:52:36.167Z,86.56
2016-08-22T06:53:36.190Z,86.08
2016-08-22T06:54:36.223Z,86.71
2016-08-22T06:55:36.244Z,86.9
2016-08-22T06:56:36.277Z,86.42
2016-08-22T06:57:36.300Z,86.94
2016-08-22T06:58:36.329Z,85.88
2016-08-22T06:59:36.361Z,86.27
2016-08-22T07:00:36.387Z,84.44
2016-08-22T07:01:36.412Z,85.4
2016-08-22T07:02:36.444Z,85.31
2016-08-22T07:04:36.499Z,84.73
2016-08-22T07:05:51.451Z,85.65
2016-08-22T07:06:36.549Z,85.75
2016-08-22T07:07:36.581Z,86.04
2016-08-22T07:08:36.607Z,85.84
2016-08-22T07:09:36.634Z,86.13
2016-08-22T07:10:36.661Z,85.75
2016-08-22T07:11:36.690Z,86.13
2016-08-22T07:12:36.717Z,86.32
2016-08-22T07:13:36.746Z,86.61
2016-08-22T07:14:36.772Z,85.55
2016-08-22T07:15:36.797Z,84.83
2016-08-22T07:16:36.831Z,84.06
2016-08-22T07:17:36.851Z,83.96
2016-08-22T07:18:36.887Z,83.72
2016-08-22T07:19:36.906Z,83.67
2016-08-22T07:20:36.939Z,83.86
2016-08-22T07:21:36.969Z,84.06
2016-08-22T07:23:37.016Z,82.31
2016-08-22T07:24:37.046Z,80.14
2016-08-22T07:25:37.074Z,79.46
2016-08-22T07:26:37.102Z,78.92
2016-08-22T07:27:37.137Z,79.31
2016-08-22T07:28:37.160Z,79.21
2016-08-22T07:29:37.193Z,79.31
2016-08-22T07:30:37.215Z,78.83
2016-08-22T07:31:37.249Z,79.31
2016-08-22T07:32:37.281Z,80.48
2016-08-22T07:33:37.303Z,80.77
2016-08-22T07:36:37.387Z,79.46
2016-08-22T07:37:52.343Z,78.88
2016-08-22T07:38:37.448Z,79.08
2016-08-22T07:39:37.481Z,79.27
2016-08-22T07:40:37.505Z,78.44
2016-08-22T07:41:37.534Z,79.46
2016-08-22T07:42:37.560Z,80.71
2016-08-22T07:43:37.592Z,80.52
2016-08-22T07:44:37.624Z,80.23
2016-08-22T07:45:37.700Z,79.08
2016-08-22T07:46:37.680Z,78.98
2016-08-22T07:47:37.706Z,79.17
2016-08-22T07:48:37.729Z,80.14
2016-08-22T07:49:37.757Z,79.71
2016-08-22T07:50:37.794Z,79.81
2016-08-22T07:51:37.817Z,81.06
2016-08-22T07:52:37.848Z,80.83
2016-08-22T07:53:52.798Z,81.02
2016-08-22T07:54:37.907Z,81.02
2016-08-22T07:55:37.934Z,80.63
2016-08-22T07:56:37.958Z,79.43
2016-08-22T07:57:37.985Z,79.33
2016-08-22T07:58:38.014Z,77.48
2016-08-22T07:59:38.044Z,74.72
2016-08-22T08:00:38.074Z,73.73
2016-08-22T08:01:38.105Z,72.42
2016-08-22T08:02:38.127Z,71.45
2016-08-22T08:03:38.155Z,72.52
2016-08-22T08:04:38.186Z,73.44
2016-08-22T08:05:38.216Z,73.6
2016-08-22T08:06:38.246Z,73.85
2016-08-22T08:07:38.272Z,75.3
2016-08-22T08:08:38.305Z,75.68
2016-08-22T08:09:53.256Z,76.07
2016-08-22T08:10:38.366Z,75.59
2016-08-22T08:11:38.388Z,74.18
2016-08-22T08:12:38.421Z,72.63
2016-08-22T08:13:38.451Z,71.84
2016-08-22T08:14:38.477Z,70.14
2016-08-22T08:15:38.508Z,68.52
2016-08-22T08:16:38.541Z,67.53
2016-08-22T08:17:38.572Z,67.05
2016-08-22T08:18:38.602Z,67.01
2016-08-22T08:19:38.632Z,69.3
2016-08-22T08:20:38.666Z,69.3
2016-08-22T08:23:38.755Z,71.45
2016-08-22T08:24:38.789Z,71.74
2016-08-22T08:25:53.754Z,71.32
2016-08-22T08:26:38.849Z,70.58
2016-08-22T08:27:38.881Z,68.78
2016-08-22T08:28:38.915Z,68.14
2016-08-22T08:29:38.940Z,68.91
2016-08-22T08:30:38.972Z,70.78
2016-08-22T08:31:39.000Z,70.48
2016-08-22T08:32:39.032Z,70.97
2016-08-22T08:33:39.064Z,70.26
2016-08-22T08:34:39.096Z,70.74
2016-08-22T08:35:39.126Z,71.61
2016-08-22T08:36:39.157Z,71.03
2016-08-22T08:37:39.188Z,70.54
2016-08-22T08:38:39.214Z,70.84
2016-08-22T08:39:39.251Z,67.11
2016-08-22T08:40:54.253Z,65.88
2016-08-22T08:41:39.312Z,65.43
2016-08-22T08:42:39.340Z,64.89
2016-08-22T08:43:39.384Z,65.08
2016-08-22T08:44:39.406Z,66.66
2016-08-22T08:45:39.431Z,66.27
2016-08-22T08:46:40.158Z,66.2
2016-08-22T08:47:39.493Z,64.01
2016-08-22T08:48:39.527Z,62.21
2016-08-22T08:49:39.558Z,63.27
2016-08-22T08:50:39.588Z,61.66
2016-08-22T08:51:39.618Z,60.27
2016-08-22T08:52:39.649Z,57.32
2016-08-22T08:53:39.683Z,56.05
2016-08-22T08:54:39.718Z,56.64
2016-08-22T08:55:39.749Z,55.89
2016-08-22T08:56:39.779Z,54.85
2016-08-22T08:57:39.814Z,55.82
2016-08-22T08:58:39.843Z,55.33
2016-08-22T08:59:39.883Z,56.57
2016-08-22T09:00:39.914Z,57
2016-08-22T09:01:39.941Z,58.23
2016-08-22T09:02:39.979Z,58.52
2016-08-22T09:03:40.014Z,59.75
2016-08-22T09:04:40.046Z,61.08
2016-08-22T09:05:40.076Z,62.4
2016-08-22T09:06:40.111Z,62.79
2016-08-22T09:08:40.176Z,62.85
2016-08-22T09:09:40.203Z,63.73
2016-08-22T09:10:40.232Z,62.47
2016-08-22T09:11:40.263Z,63.05
2016-08-22T09:12:55.223Z,62.63
2016-08-22T09:13:40.327Z,63.69
2016-08-22T09:14:40.359Z,63.79
2016-08-22T09:15:40.388Z,62.82
2016-08-22T09:16:40.421Z,63.24
2016-08-22T09:17:40.456Z,63.34
2016-08-22T09:18:40.487Z,62.85
2016-08-22T09:19:40.512Z,63.98
2016-08-22T09:20:40.545Z,63.43
2016-08-22T09:21:40.574Z,63.43
2016-08-22T09:22:40.604Z,64.69
2016-08-22T09:23:40.631Z,64.11
2016-08-22T09:24:40.667Z,63.18
2016-08-22T09:25:40.696Z,63.08
2016-08-22T09:27:40.761Z,61.18
2016-08-22T09:28:55.714Z,60.27
2016-08-22T09:30:40.851Z,60.24
2016-08-22T09:31:40.882Z,59.46
2016-08-22T09:32:40.918Z,57.65
2016-08-22T09:33:40.942Z,56.81
2016-08-22T09:34:40.977Z,57.97
2016-08-22T09:35:41.006Z,57.78
2016-08-22T09:36:41.037Z,57.26
2016-08-22T09:37:41.074Z,56.9
2016-08-22T09:38:41.101Z,56.87
2016-08-22T09:39:41.125Z,57.29
2016-08-22T09:40:41.160Z,58.14
2016-08-22T09:41:41.194Z,58.81
2016-08-22T09:42:41.223Z,58.88
2016-08-22T09:43:41.258Z,59.75
2016-08-22T09:44:56.211Z,60.78
2016-08-22T09:45:41.311Z,60.75
2016-08-22T09:46:41.347Z,60.37
2016-08-22T09:47:41.380Z,58.17
2016-08-22T09:48:41.403Z,57.91
2016-08-22T09:49:42.498Z,56.77
2016-08-22T09:50:41.472Z,57.07
2016-08-22T09:51:41.499Z,56.87
2016-08-22T09:52:41.578Z,55.52
2016-08-22T09:53:41.559Z,57.91
2016-08-22T09:54:41.594Z,56.49
2016-08-22T09:55:41.624Z,56.77
2016-08-22T09:57:41.681Z,56.61
2016-08-22T09:58:41.713Z,55.06
2016-08-22T09:59:41.747Z,54.09
2016-08-22T10:00:56.702Z,53.92
2016-08-22T10:02:41.843Z,54.44
2016-08-22T10:03:41.868Z,53.75
2016-08-22T10:04:41.914Z,53.95
2016-08-22T10:05:41.930Z,53.75
2016-08-22T10:06:41.959Z,53.08
2016-08-22T10:07:41.997Z,50.94
2016-08-22T10:08:42.024Z,49.44
2016-08-22T10:09:42.056Z,49.76
2016-08-22T10:10:42.105Z,48.41
2016-08-22T10:11:42.121Z,49.22
2016-08-22T10:13:42.186Z,46.25
2016-08-22T10:14:42.218Z,45.67
2016-08-22T10:15:57.172Z,47.49
2016-08-22T10:16:42.281Z,47.47
2016-08-22T10:17:42.313Z,48.73
2016-08-22T10:18:42.346Z,47.86
2016-08-22T10:19:42.376Z,48.13
2016-08-22T10:20:42.408Z,50.73
2016-08-22T10:21:42.441Z,49.73
2016-08-22T10:22:42.476Z,50.04
2016-08-22T10:23:42.505Z,50.7
2016-08-22T10:24:42.537Z,50.7
2016-08-22T10:25:42.567Z,51.06
2016-08-22T10:26:42.601Z,52.86
2016-08-22T10:28:42.664Z,53.51
2016-08-22T10:29:42.697Z,53.31
2016-08-22T10:30:42.730Z,53.7
2016-08-22T10:33:42.826Z,55.27
2016-08-22T10:34:42.854Z,56.5
2016-08-22T10:35:42.897Z,56.67
2016-08-22T10:36:42.921Z,58.02
2016-08-22T10:37:42.952Z,57.86
2016-08-22T10:38:42.983Z,56.43
2016-08-22T10:39:43.013Z,56.94
2016-08-22T10:40:43.042Z,56.94
2016-08-22T10:41:43.071Z,58.69
2016-08-22T10:42:43.103Z,57.62
2016-08-22T10:43:43.135Z,56.2
2016-08-22T10:44:43.172Z,56.36
2016-08-22T10:45:43.200Z,55.42
2016-08-22T10:46:43.225Z,54.64
2016-08-22T10:47:58.184Z,55.35
2016-08-22T10:48:43.295Z,54.58
2016-08-22T10:49:43.321Z,55.74
2016-08-22T10:50:43.361Z,54.77
2016-08-22T10:51:43.383Z,56.49
2016-08-22T10:52:43.411Z,55.44
2016-08-22T10:53:43.446Z,54.38
2016-08-22T10:54:43.476Z,53.97
2016-08-22T10:55:43.508Z,55.81
2016-08-22T10:56:43.545Z,55.04
2016-08-22T10:57:43.568Z,54.16
2016-08-22T10:58:43.604Z,54.03
2016-08-22T10:59:43.642Z,55.88
2016-08-22T11:00:43.667Z,54.81
2016-08-22T11:01:43.691Z,56.92
2016-08-22T11:02:43.724Z,56.14
2016-08-22T11:03:58.680Z,55.4
2016-08-22T11:04:43.786Z,56.65
2016-08-22T11:05:43.828Z,56.36
2016-08-22T11:06:43.851Z,54.74
2016-08-22T11:07:43.877Z,54.91
2016-08-22T11:08:43.907Z,56.16
2016-08-22T11:09:43.941Z,56.65
2016-08-22T11:10:43.974Z,55.2
2016-08-22T11:11:44.004Z,56.65
2016-08-22T11:12:44.030Z,55.88
2016-08-22T11:13:44.064Z,55.49
2016-08-22T11:14:44.090Z,55.58
2016-08-22T11:15:44.120Z,56.49
2016-08-22T11:17:44.183Z,53.99
2016-08-22T11:18:44.217Z,54.74
2016-08-22T11:19:59.167Z,53.97
2016-08-22T11:21:44.305Z,55.2
2016-08-22T11:22:44.336Z,56.46
2016-08-22T11:23:44.365Z,55.88
2016-08-22T11:24:44.400Z,55.42
2016-08-22T11:25:44.428Z,55.49
2016-08-22T11:26:44.461Z,55.3
2016-08-22T11:27:44.491Z,54.23
2016-08-22T11:28:44.518Z,55.07
2016-08-22T11:29:44.546Z,55.27
2016-08-22T11:30:44.577Z,55.88
2016-08-22T11:31:44.604Z,55.2
2016-08-22T11:32:44.640Z,53.58
2016-08-22T11:33:44.674Z,54.26
2016-08-22T11:34:44.701Z,54.16
2016-08-22T11:35:59.653Z,55.04
2016-08-22T11:36:44.759Z,54.91
2016-08-22T11:37:44.786Z,55.2
2016-08-22T11:38:44.821Z,55.49
2016-08-22T11:39:44.853Z,55.9
2016-08-22T11:40:44.883Z,56.1
2016-08-22T11:41:44.913Z,54.45
2016-08-22T11:42:44.938Z,54.09
2016-08-22T11:43:44.969Z,55.06
2016-08-22T11:44:45.003Z,55.54
2016-08-22T11:45:45.038Z,55.16
2016-08-22T11:46:45.063Z,53.34
2016-08-22T11:48:45.121Z,53.92
2016-08-22T11:49:45.152Z,53.15
2016-08-22T11:51:00.108Z,51.72
2016-08-22T11:51:45.214Z,52.37
2016-08-22T11:53:45.276Z,52.66
2016-08-22T11:54:45.307Z,51.59
2016-08-22T11:55:45.332Z,52.37
2016-08-22T11:56:45.364Z,50.62
2016-08-22T11:57:45.396Z,51.31
2016-08-22T11:58:45.427Z,53.22
2016-08-22T11:59:45.459Z,52.34
2016-08-22T12:01:45.516Z,53.31
2016-08-22T12:03:45.577Z,51.98
2016-08-22T12:04:45.605Z,51.69
2016-08-22T12:05:45.896Z,51.11
2016-08-22T12:07:45.699Z,52.22
2016-08-22T12:08:45.729Z,53.97
2016-08-22T12:09:45.761Z,53.49
2016-08-22T12:10:45.787Z,52.22
2016-08-22T12:11:45.821Z,53.58
2016-08-22T12:12:45.849Z,53.67
2016-08-22T12:13:45.885Z,53.29
2016-08-22T12:14:45.911Z,52.93
2016-08-22T12:15:45.943Z,52.15
2016-08-22T12:16:45.968Z,53.12
2016-08-22T12:17:46.004Z,51.09
2016-08-22T12:18:46.038Z,52.54
2016-08-22T12:19:46.058Z,50.5
2016-08-22T12:20:46.095Z,51.16
2016-08-22T12:21:46.121Z,52.22
2016-08-22T12:23:01.077Z,52.32
2016-08-22T12:23:46.185Z,52.03
2016-08-22T12:24:46.213Z,52.03
2016-08-22T12:25:46.246Z,51.16
2016-08-22T12:26:46.270Z,52.22
2016-08-22T12:27:46.310Z,50.7
2016-08-22T12:28:46.331Z,51.47
2016-08-22T12:29:46.366Z,51.86
2016-08-22T12:30:46.391Z,52.25
2016-08-22T12:31:46.423Z,51.31
2016-08-22T12:32:46.457Z,50.6
2016-08-22T12:33:46.686Z,50.72
2016-08-22T12:34:46.517Z,49.75
2016-08-22T12:36:46.575Z,49.27
2016-08-22T12:37:46.606Z,49.17
2016-08-22T12:39:01.559Z,47.91
2016-08-22T12:39:46.670Z,47.42
2016-08-22T12:40:46.698Z,47.33
2016-08-22T12:41:46.728Z,49.27
2016-08-22T12:42:46.764Z,47.16
2016-08-22T12:43:46.786Z,46.77
2016-08-22T12:44:46.825Z,47.74
2016-08-22T12:45:46.848Z,47.16
2016-08-22T12:46:46.880Z,47.52
2016-08-22T12:47:46.902Z,48
2016-08-22T12:48:47.634Z,49.05
2016-08-22T12:49:46.986Z,49.44
2016-08-22T12:50:47.002Z,49.46
2016-08-22T12:52:47.055Z,49.85
2016-08-22T12:53:47.094Z,50.02
2016-08-22T12:55:02.042Z,48.49
2016-08-22T12:55:47.149Z,47.91
2016-08-22T12:56:47.184Z,49.24
2016-08-22T12:57:47.267Z,48.18
2016-08-22T12:58:47.240Z,47.98
2016-08-22T12:59:47.269Z,47.2
2016-08-22T13:00:47.296Z,47.98
2016-08-22T13:01:47.329Z,47.5
2016-08-22T13:02:47.362Z,47.42
2016-08-22T13:03:47.389Z,47.52
2016-08-22T13:04:47.415Z,47.91
2016-08-22T13:05:47.452Z,47.72
2016-08-22T13:06:47.489Z,46.45
2016-08-22T13:07:47.512Z,47.42
2016-08-22T13:08:47.540Z,47.3
2016-08-22T13:09:47.573Z,48.57
2016-08-22T13:11:02.526Z,47.89
2016-08-22T13:11:47.628Z,47.72
2016-08-22T13:12:47.663Z,47.33
2016-08-22T13:13:47.694Z,47.2
2016-08-22T13:14:47.724Z,47.86
2016-08-22T13:15:47.750Z,48.25
2016-08-22T13:16:47.778Z,47.86
2016-08-22T13:17:47.811Z,49.1
2016-08-22T13:18:47.844Z,49
2016-08-22T13:19:47.868Z,49.7
2016-08-22T13:20:48.610Z,48.25
2016-08-22T13:21:47.931Z,48.27
2016-08-22T13:22:47.963Z,49.05
2016-08-22T13:23:47.993Z,48.85
2016-08-22T13:24:48.024Z,49.37
2016-08-22T13:26:02.978Z,48
2016-08-22T13:26:48.079Z,48.39
2016-08-22T13:27:48.116Z,49.27
2016-08-22T13:28:48.142Z,48
2016-08-22T13:29:48.176Z,48.49
2016-08-22T13:30:48.205Z,48.49
2016-08-22T13:31:48.228Z,48
2016-08-22T13:32:48.275Z,47.93
2016-08-22T13:33:48.291Z,46.94
2016-08-22T13:34:48.325Z,47.62
2016-08-22T13:35:48.354Z,47.72
2016-08-22T13:36:48.381Z,48.2
2016-08-22T13:37:48.413Z,50.24
2016-08-22T13:39:48.475Z,47.35
2016-08-22T13:40:48.505Z,47.55
2016-08-22T13:41:48.534Z,48
2016-08-22T13:42:48.568Z,48.9
2016-08-22T13:43:48.598Z,47.35
2016-08-22T13:44:48.625Z,47.35